Time;durP1;ratioP1;P1;durP2;ratioP2;P2;SDS_P1;SDS_P2;PMS_P1;PMS_P2;Temp;Humidity;BMP_temperature;BMP_pressure;BME280_temperature;BME280_humidity;BME280_pressure;Samples;Min_cycle;Max_cycle;Signal;HPM_P1;HPM_P2
2022/09/07 00:01:37;;;;;;;;;2.50;2.50;;;;;24.28;40.90;100856.75;4922018;28;45249;-64
2022/09/07 00:04:03;;;;;;;;;4.75;2.00;;;;;24.22;41.13;100848.28;4923096;28;45389;-66
2022/09/07 00:06:29;;;;;;;;;2.25;2.25;;;;;24.19;41.00;100857.41;4922624;28;45437;-66
2022/09/07 00:08:55;;;;;;;;;1.75;1.75;;;;;24.14;41.18;100851.50;4922565;28;45449;-67
2022/09/07 00:11:20;;;;;;;;;2.00;1.50;;;;;24.00;41.36;100839.91;4921353;28;45423;-66
2022/09/07 00:13:48;;;;;;;;;2.00;2.00;;;;;24.04;41.14;100850.41;4922592;28;45345;-66
2022/09/07 00:16:23;;;;;;;;;1.75;1.75;;;;;23.98;41.22;100862.44;4922405;28;45485;-66
2022/09/07 00:18:48;;;;;;;;;1.75;1.75;;;;;23.91;41.47;100853.97;4922460;28;45254;-66
2022/09/07 00:21:16;;;;;;;;;1.00;1.00;;;;;23.89;41.34;100858.53;4927332;28;45235;-66
2022/09/07 00:23:42;;;;;;;;;2.00;1.25;;;;;23.86;41.43;100858.72;4931984;28;45327;-66
2022/09/07 00:26:10;;;;;;;;;1.25;1.25;;;;;23.81;41.48;100855.50;4922473;28;45465;-66
2022/09/07 00:28:36;;;;;;;;;2.50;1.00;;;;;23.78;41.83;100853.03;4920489;28;46827;-66
2022/09/07 00:31:02;;;;;;;;;1.25;1.25;;;;;23.69;41.55;100846.47;4922351;28;45252;-66
2022/09/07 00:33:29;;;;;;;;;2.50;1.75;;;;;23.66;41.53;100850.22;4922492;28;45422;-66
2022/09/07 00:35:54;;;;;;;;;2.00;2.00;;;;;23.63;41.78;100842.38;4922360;28;45263;-66
2022/09/07 00:38:19;;;;;;;;;2.00;2.00;;;;;23.61;41.78;100838.06;4922313;28;45257;-66
2022/09/07 00:40:45;;;;;;;;;4.50;2.50;;;;;23.58;42.10;100838.31;4922316;28;45245;-66
2022/09/07 00:43:40;;;;;;;;;4.00;3.75;;;;;23.52;41.95;100827.03;4922067;28;45435;-66
2022/09/07 00:46:33;;;;;;;;;1.25;1.25;;;;;23.50;41.80;100839.66;4932478;28;45693;-66
2022/09/07 00:49:11;;;;;;;;;2.25;2.25;;;;;23.49;41.96;100843.31;4959127;28;46206;-66
2022/09/07 00:51:59;;;;;;;;;2.50;2.50;;;;;23.47;42.27;100844.38;4960615;28;45397;-66
2022/09/07 00:54:35;;;;;;;;;3.00;2.00;;;;;23.46;42.03;100848.00;4960790;28;45496;-66
2022/09/07 00:57:01;;;;;;;;;7.25;2.25;;;;;23.43;42.33;100853.59;4960675;28;45341;-66
2022/09/07 00:59:32;;;;;;;;;2.00;2.00;;;;;23.36;42.41;100859.38;4960339;28;45256;-66
2022/09/07 01:01:58;;;;;;;;;3.50;2.75;;;;;23.28;42.84;100853.66;4943757;28;45419;-66
2022/09/07 01:04:25;;;;;;;;;3.25;3.25;;;;;23.28;42.67;100853.66;4960686;28;45330;-66
2022/09/07 01:06:53;;;;;;;;;1.75;1.75;;;;;23.24;43.08;100851.28;4959288;28;45542;-67
2022/09/07 01:09:21;;;;;;;;;3.00;3.00;;;;;23.20;42.95;100846.09;4960543;28;45227;-66
2022/09/07 01:11:49;;;;;;;;;3.00;2.00;;;;;23.14;42.96;100845.63;4960179;28;45412;-66
2022/09/07 01:14:21;;;;;;;;;3.25;3.25;;;;;23.12;43.29;100851.09;4963480;28;45344;-66
2022/09/07 01:17:01;;;;;;;;;3.00;2.00;;;;;23.08;43.16;100841.53;4963908;28;45256;-67
2022/09/07 01:20:29;;;;;;;;;3.25;1.00;;;;;23.00;43.55;100838.50;4963554;28;46393;-66
2022/09/07 01:22:55;;;;;;;;;4.25;3.00;;;;;23.00;43.37;100850.06;4899603;28;45297;-66
2022/09/07 01:25:29;;;;;;;;;1.50;1.50;;;;;22.97;43.40;100855.63;4869317;29;45359;-66
2022/09/07 01:28:09;;;;;;;;;4.00;4.00;;;;;22.92;43.60;100852.38;4925119;28;45313;-66
2022/09/07 01:30:37;;;;;;;;;5.00;4.00;;;;;22.93;43.93;100845.19;4950187;28;45571;-67
2022/09/07 01:33:08;;;;;;;;;3.50;3.50;;;;;22.89;43.76;100847.22;4963675;28;45338;-67
2022/09/07 01:36:12;;;;;;;;;2.25;2.25;;;;;22.87;44.19;100841.97;4963538;28;45445;-67
2022/09/07 01:38:46;;;;;;;;;3.00;3.00;;;;;22.85;44.29;100845.69;4945545;28;45337;-67
2022/09/07 01:41:19;;;;;;;;;4.25;3.75;;;;;22.80;44.05;100840.63;4945878;28;47498;-67
2022/09/07 01:44:06;;;;;;;;;2.00;2.00;;;;;22.78;44.02;100841.69;4945761;28;45309;-67
2022/09/07 01:46:42;;;;;;;;;2.50;2.00;;;;;22.77;44.30;100837.31;4945860;28;45424;-67
2022/09/07 01:49:12;;;;;;;;;2.50;2.50;;;;;22.73;44.35;100840.16;4958294;28;45271;-67
2022/09/07 01:51:43;;;;;;;;;3.00;3.00;;;;;22.70;44.14;100835.03;4963210;28;46281;-67
2022/09/07 01:54:29;;;;;;;;;2.50;2.50;;;;;22.69;44.37;100837.78;4963379;28;45233;-67
2022/09/07 01:57:00;;;;;;;;;6.00;3.00;;;;;22.61;44.38;100824.03;4962024;28;45446;-67
2022/09/07 01:59:45;;;;;;;;;2.50;2.50;;;;;22.60;44.68;100825.81;4962942;28;45217;-67
2022/09/07 02:02:26;;;;;;;;;3.75;3.75;;;;;22.55;44.46;100827.94;4963006;28;45287;-67
2022/09/07 02:05:08;;;;;;;;;3.75;3.75;;;;;22.51;44.37;100834.47;4962887;28;45292;-67
2022/09/07 02:07:38;;;;;;;;;4.00;3.75;;;;;22.49;44.46;100828.31;4963265;28;45342;-67
2022/09/07 02:10:17;;;;;;;;;4.00;3.00;;;;;22.43;44.98;100818.00;4962878;28;45543;-67
2022/09/07 02:13:03;;;;;;;;;3.50;2.00;;;;;22.44;44.49;100831.31;4962386;28;46329;-67
2022/09/07 02:15:46;;;;;;;;;6.25;6.25;;;;;22.42;44.76;100827.00;4962934;28;45462;-67
2022/09/07 02:18:13;;;;;;;;;3.50;3.00;;;;;22.39;45.12;100823.56;4945497;28;45463;-67
2022/09/07 02:20:41;;;;;;;;;3.75;3.25;;;;;22.38;45.15;100827.19;4962713;28;45332;-67
2022/09/07 02:23:29;;;;;;;;;3.50;3.50;;;;;22.35;44.77;100830.03;4962071;28;45546;-67
2022/09/07 02:26:09;;;;;;;;;4.75;3.75;;;;;22.32;44.78;100827.53;4962606;28;45406;-67
2022/09/07 02:28:37;;;;;;;;;4.00;4.00;;;;;22.31;45.39;100830.31;4962615;28;45448;-66
2022/09/07 02:31:03;;;;;;;;;3.25;2.50;;;;;22.24;45.21;100816.47;4962847;28;45451;-67
2022/09/07 02:33:29;;;;;;;;;4.50;2.75;;;;;22.23;45.56;100820.09;4962724;28;46231;-67
2022/09/07 02:35:55;;;;;;;;;4.25;3.25;;;;;22.20;45.44;100820.25;4945194;28;45201;-67
2022/09/07 02:38:21;;;;;;;;;5.00;3.00;;;;;22.16;45.67;100827.66;4962798;28;45533;-67
2022/09/07 02:40:56;;;;;;;;;3.50;2.00;;;;;22.15;45.61;100822.38;4962518;28;45391;-67
2022/09/07 02:43:23;;;;;;;;;4.50;3.25;;;;;22.11;45.84;100821.69;4962143;28;45371;-66
2022/09/07 02:46:14;;;;;;;;;4.50;4.50;;;;;22.08;45.19;100830.78;4962233;28;45334;-66
2022/09/07 02:48:47;;;;;;;;;3.00;3.00;;;;;22.03;45.63;100822.16;4963019;28;45348;-66
2022/09/07 02:51:37;;;;;;;;;3.25;3.00;;;;;22.03;45.78;100827.53;4962520;28;45220;-66
2022/09/07 02:54:14;;;;;;;;;2.25;2.25;;;;;22.02;45.45;100832.97;4962332;28;45279;-67
2022/09/07 02:57:06;;;;;;;;;4.50;4.00;;;;;21.99;45.54;100819.78;4962127;28;45344;-67
2022/09/07 03:00:04;;;;;;;;;4.00;4.00;;;;;21.96;46.03;100823.53;4960958;28;45492;-67
2022/09/07 03:02:32;;;;;;;;;4.00;4.00;;;;;21.94;45.73;100817.38;4962177;28;45485;-67
2022/09/07 03:05:09;;;;;;;;;4.50;3.25;;;;;21.94;46.15;100819.19;4962049;28;46208;-67
2022/09/07 03:07:39;;;;;;;;;4.75;3.25;;;;;21.91;45.76;100822.91;4962125;28;45249;-67
2022/09/07 03:10:06;;;;;;;;;3.00;2.25;;;;;21.89;45.77;100819.50;4962171;28;45284;-67
2022/09/07 03:12:46;;;;;;;;;4.50;3.50;;;;;21.90;45.60;100822.06;4944483;28;45481;-67
2022/09/07 03:15:14;;;;;;;;;3.50;3.50;;;;;21.85;46.26;100824.16;4961832;28;46186;-67
2022/09/07 03:17:40;;;;;;;;;4.75;4.00;;;;;21.84;46.17;100827.78;4961948;28;45437;-67
2022/09/07 03:20:06;;;;;;;;;3.25;3.00;;;;;21.85;45.64;100834.84;4944704;28;45314;-67
2022/09/07 03:22:32;;;;;;;;;3.00;3.00;;;;;21.84;45.85;100832.28;4961711;28;45479;-67
2022/09/07 03:24:57;;;;;;;;;5.00;4.00;;;;;21.80;45.78;100836.94;4961835;28;46197;-67
2022/09/07 03:27:23;;;;;;;;;3.00;3.00;;;;;21.77;45.79;100831.78;4961407;28;45283;-67
2022/09/07 03:29:48;;;;;;;;;2.00;2.00;;;;;21.75;45.91;100847.91;4962220;28;45208;-67
2022/09/07 03:32:13;;;;;;;;;4.50;3.25;;;;;21.72;46.22;100840.09;4961851;28;45173;-67
2022/09/07 03:34:39;;;;;;;;;4.00;4.00;;;;;21.72;45.70;100837.41;4961306;28;45317;-67
2022/09/07 03:37:04;;;;;;;;;3.00;3.00;;;;;21.71;46.33;100845.50;4961413;28;45204;-67
2022/09/07 03:39:30;;;;;;;;;2.25;2.25;;;;;21.70;46.14;100843.81;4962009;28;45153;-67
2022/09/07 03:41:55;;;;;;;;;4.50;3.50;;;;;21.67;46.10;100843.97;4961479;28;45406;-67
2022/09/07 03:44:20;;;;;;;;;6.25;4.00;;;;;21.65;46.30;100843.22;4944011;28;47388;-67
2022/09/07 03:46:46;;;;;;;;;2.25;2.25;;;;;21.63;45.67;100842.44;4960347;28;45244;-67
2022/09/07 03:49:11;;;;;;;;;4.25;4.00;;;;;21.53;46.12;100844.75;4974442;28;45279;-67
2022/09/07 03:51:37;;;;;;;;;2.25;2.25;;;;;21.59;46.00;100849.78;4961583;28;45340;-67
2022/09/07 03:54:03;;;;;;;;;3.00;2.00;;;;;21.60;46.27;100862.19;4961547;28;46337;-67
2022/09/07 03:56:28;;;;;;;;;4.00;4.00;;;;;21.56;45.75;100858.00;4961295;28;45455;-67
2022/09/07 03:58:54;;;;;;;;;3.75;3.75;;;;;21.50;46.35;100851.16;4961358;28;45603;-67
2022/09/07 04:01:23;;;;;;;;;4.00;3.00;;;;;21.50;45.81;100861.84;4961029;28;45466;-68
2022/09/07 04:03:48;;;;;;;;;3.50;3.50;;;;;21.50;46.32;100856.50;4961331;28;46130;-68
2022/09/07 04:06:15;;;;;;;;;4.75;4.00;;;;;21.48;45.97;100862.88;4943369;28;45754;-68
2022/09/07 04:08:42;;;;;;;;;3.00;2.00;;;;;21.46;46.51;100864.78;4944188;28;45221;-68
2022/09/07 04:11:11;;;;;;;;;4.25;2.75;;;;;21.46;45.97;100867.44;4943646;28;45717;-68
2022/09/07 04:13:37;;;;;;;;;2.25;2.25;;;;;21.35;46.11;100868.09;4960935;28;45923;-68
2022/09/07 04:16:17;;;;;;;;;2.75;2.00;;;;;21.35;46.45;100868.94;4958029;28;45322;-66
2022/09/07 04:18:42;;;;;;;;;4.00;4.00;;;;;21.34;46.01;100885.91;4956809;28;45326;-71
2022/09/07 04:21:10;;;;;;;;;3.25;3.25;;;;;21.32;45.93;100871.78;4957829;28;45574;-71
2022/09/07 04:23:40;;;;;;;;;4.50;4.50;;;;;21.30;46.16;100880.84;4961020;28;46174;-72
2022/09/07 04:26:06;;;;;;;;;7.50;7.25;;;;;21.25;46.57;100887.28;4960979;28;45250;-70
2022/09/07 04:28:31;;;;;;;;;4.25;3.00;;;;;21.22;46.72;100894.63;4960873;28;45336;-70
2022/09/07 04:31:01;;;;;;;;;4.00;4.00;;;;;21.17;46.45;100897.56;4961019;28;45359;-70
2022/09/07 04:33:29;;;;;;;;;6.75;3.00;;;;;21.14;46.65;100888.88;4960892;28;46026;-70
2022/09/07 04:35:54;;;;;;;;;3.50;3.50;;;;;21.14;46.81;100894.22;4960880;28;45181;-71
2022/09/07 04:38:20;;;;;;;;;3.00;3.00;;;;;21.09;46.55;100889.13;4960912;28;45359;-70
2022/09/07 04:40:45;;;;;;;;;3.75;2.00;;;;;21.07;46.81;100896.38;4960304;28;45494;-71
2022/09/07 04:43:11;;;;;;;;;3.25;3.25;;;;;21.07;46.95;100891.88;4960451;28;45160;-70
2022/09/07 04:45:38;;;;;;;;;5.25;2.75;;;;;21.06;46.56;100891.97;4960572;28;45454;-71
2022/09/07 04:48:04;;;;;;;;;3.25;3.00;;;;;21.06;46.49;100884.81;4962735;28;45473;-71
2022/09/07 04:50:29;;;;;;;;;3.50;3.50;;;;;21.03;47.08;100885.00;4964032;28;45362;-71
2022/09/07 04:52:54;;;;;;;;;3.00;3.00;;;;;21.03;46.67;100898.34;4963414;28;45420;-72
2022/09/07 04:55:20;;;;;;;;;5.00;3.00;;;;;21.03;46.70;100893.00;4963941;28;45227;-71
2022/09/07 04:57:48;;;;;;;;;3.00;3.00;;;;;21.01;47.18;100897.56;4946645;28;45391;-71
2022/09/07 05:00:14;;;;;;;;;7.25;5.00;;;;;20.99;47.20;100891.44;4963973;28;45247;-72
2022/09/07 05:02:40;;;;;;;;;8.25;5.75;;;;;20.98;46.92;100891.53;4963936;28;46222;-72
2022/09/07 05:05:06;;;;;;;;;9.50;7.00;;;;;20.93;47.53;100873.09;4963977;28;45199;-72
2022/09/07 05:07:31;;;;;;;;;7.25;7.00;;;;;20.92;46.90;100882.91;4964084;28;45298;-72
2022/09/07 05:09:56;;;;;;;;;8.25;8.00;;;;;20.93;47.46;100884.63;4963796;28;45315;-72
2022/09/07 05:12:22;;;;;;;;;9.75;8.00;;;;;20.92;47.04;100882.91;4963472;28;46181;-72
2022/09/07 05:14:47;;;;;;;;;7.75;6.75;;;;;20.91;47.16;100885.66;4963637;28;45442;-73
2022/09/07 05:17:13;;;;;;;;;8.00;7.00;;;;;20.92;47.43;100898.09;4963934;28;45338;-73
2022/09/07 05:19:38;;;;;;;;;9.75;7.50;;;;;20.87;47.17;100886.78;4963714;28;45299;-72
2022/09/07 05:22:04;;;;;;;;;14.25;12.50;;;;;20.92;46.94;100892.75;4963629;28;45439;-72
2022/09/07 05:24:29;;;;;;;;;9.50;9.00;;;;;20.93;46.88;100899.81;4963610;28;45336;-72
2022/09/07 05:26:54;;;;;;;;;15.75;13.25;;;;;20.94;46.77;100902.41;4963670;28;45621;-72
2022/09/07 05:29:20;;;;;;;;;7.00;5.25;;;;;20.91;47.34;100907.03;4963407;28;45359;-72
2022/09/07 05:31:47;;;;;;;;;11.25;9.50;;;;;20.95;47.31;100911.25;4963485;28;45999;-72
2022/09/07 05:34:13;;;;;;;;;11.00;10.00;;;;;20.91;47.23;100915.06;4963417;28;45241;-72
2022/09/07 05:36:39;;;;;;;;;7.50;5.00;;;;;20.91;46.81;100915.91;4963533;28;45389;-72
2022/09/07 05:39:05;;;;;;;;;6.50;5.00;;;;;20.88;46.91;100912.53;4945172;28;45656;-73
2022/09/07 05:41:31;;;;;;;;;5.50;5.50;;;;;20.86;46.98;100915.28;4963413;28;46144;-73
2022/09/07 05:43:56;;;;;;;;;5.25;4.50;;;;;20.86;47.10;100903.75;4962731;28;45382;-72
2022/09/07 05:46:22;;;;;;;;;5.00;4.25;;;;;20.85;47.04;100910.88;4963402;28;45285;-74
2022/09/07 05:48:48;;;;;;;;;3.25;3.25;;;;;20.77;47.26;100903.31;4975446;28;45335;-66
2022/09/07 05:51:14;;;;;;;;;5.00;3.00;;;;;20.84;47.39;100910.97;4962494;28;45388;-69
2022/09/07 05:53:42;;;;;;;;;3.50;3.00;;;;;20.80;47.29;100902.28;4957522;28;46268;-69
2022/09/07 05:56:07;;;;;;;;;3.00;2.25;;;;;20.83;47.76;100906.59;4961674;28;45164;-76
2022/09/07 05:58:34;;;;;;;;;3.50;3.50;;;;;20.86;47.16;100906.44;4961932;28;45400;-73
2022/09/07 06:01:04;;;;;;;;;2.00;2.00;;;;;20.86;47.05;100912.63;4962902;28;45371;-73
2022/09/07 06:03:29;;;;;;;;;2.50;2.00;;;;;20.87;47.07;100911.69;4961662;28;45511;-67
2022/09/07 06:06:00;;;;;;;;;2.00;2.00;;;;;20.88;47.51;100909.84;4934182;28;45462;-63
2022/09/07 06:08:26;;;;;;;;;3.00;3.00;;;;;20.88;47.04;100912.53;4944262;28;45433;-73
2022/09/07 06:10:51;;;;;;;;;3.50;3.50;;;;;20.86;47.20;100912.63;4962774;28;46268;-72
2022/09/07 06:13:16;;;;;;;;;5.25;3.25;;;;;20.84;47.60;100916.31;4956124;28;45531;-70
2022/09/07 06:15:42;;;;;;;;;4.25;2.50;;;;;20.78;47.70;100912.19;5307255;23;45434;-70
2022/09/07 06:18:07;;;;;;;;;7.50;4.00;;;;;20.75;47.92;100915.91;4961938;28;45489;-75
2022/09/07 06:20:32;;;;;;;;;6.75;3.00;;;;;20.73;48.08;100919.59;4962803;28;45362;-73
2022/09/07 06:22:58;;;;;;;;;2.50;2.50;;;;;20.72;48.23;100921.38;4959047;28;45288;-69
2022/09/07 06:25:23;;;;;;;;;2.50;1.50;;;;;20.65;47.68;100914.59;4935655;28;45435;-60
2022/09/07 06:27:48;;;;;;;;;2.00;2.00;;;;;20.74;47.61;100923.97;4943169;28;45642;-61
2022/09/07 06:30:14;;;;;;;;;6.00;3.25;;;;;20.75;47.56;100923.03;4943201;28;45419;-65
2022/09/07 06:32:39;;;;;;;;;4.00;4.00;;;;;20.73;48.07;100920.44;4942709;28;45320;-65
2022/09/07 06:35:05;;;;;;;;;3.50;2.75;;;;;20.72;47.77;100918.72;4943226;28;45466;-68
2022/09/07 06:37:30;;;;;;;;;4.00;3.25;;;;;20.70;48.14;100912.56;4942678;28;45396;-56
2022/09/07 06:39:55;;;;;;;;;7.75;4.00;;;;;20.69;48.39;100921.53;4942991;28;45295;-61
2022/09/07 06:42:21;;;;;;;;;4.75;3.00;;;;;20.66;47.75;100927.03;4942411;28;45323;-55
2022/09/07 06:44:46;;;;;;;;;5.50;3.00;;;;;20.59;47.82;100923.81;4943057;28;45575;-63
2022/09/07 06:47:11;;;;;;;;;2.00;1.50;;;;;20.62;48.25;100925.47;4942644;28;45379;-59
2022/09/07 06:49:37;;;;;;;;;2.75;2.75;;;;;20.61;48.12;100923.75;4941865;28;46291;-62
2022/09/07 06:52:02;;;;;;;;;2.50;2.50;;;;;20.62;48.60;100930.81;4940662;28;45241;-63
2022/09/07 06:54:28;;;;;;;;;3.50;2.50;;;;;20.59;48.17;100929.16;4937153;28;45375;-63
2022/09/07 06:56:54;;;;;;;;;3.25;3.00;;;;;20.57;48.40;100936.38;4941055;28;45324;-63
2022/09/07 06:59:19;;;;;;;;;2.00;1.75;;;;;20.54;48.34;100928.56;4940872;28;45396;-63
2022/09/07 07:01:45;;;;;;;;;4.75;4.50;;;;;20.62;48.32;100928.13;4942176;28;45263;-63
2022/09/07 07:04:10;;;;;;;;;4.00;2.75;;;;;20.65;48.53;100927.13;4941049;28;45461;-63
2022/09/07 07:06:37;;;;;;;;;3.00;3.00;;;;;20.67;48.44;100931.41;4942359;28;45353;-63
2022/09/07 07:09:04;;;;;;;;;4.00;3.00;;;;;20.70;48.38;100925.06;4942215;28;45525;-64
2022/09/07 07:11:30;;;;;;;;;5.00;4.00;;;;;20.74;48.67;100921.28;4923936;28;45324;-64
2022/09/07 07:13:55;;;;;;;;;5.75;4.00;;;;;20.79;48.34;100921.91;4942004;28;45455;-63
2022/09/07 07:16:21;;;;;;;;;5.00;3.00;;;;;20.81;48.26;100921.84;4940064;28;45431;-64
2022/09/07 07:18:51;;;;;;;;;2.75;2.75;;;;;20.88;48.79;100917.88;4940301;28;45535;-64
2022/09/07 07:21:17;;;;;;;;;5.00;5.00;;;;;20.93;48.39;100922.03;4940717;28;45607;-64
2022/09/07 07:23:43;;;;;;;;;4.00;3.00;;;;;20.96;49.16;100918.31;4940317;28;45483;-63
2022/09/07 07:26:17;;;;;;;;;4.00;3.75;;;;;21.06;48.38;100918.69;4941963;28;45381;-64
2022/09/07 07:28:46;;;;;;;;;4.50;4.50;;;;;21.13;48.56;100924.53;4937495;28;45721;-59
2022/09/07 07:31:13;;;;;;;;;4.25;3.00;;;;;21.19;48.25;100918.84;4942027;28;45334;-60
2022/09/07 07:33:39;;;;;;;;;5.50;3.50;;;;;21.24;48.72;100927.47;4942053;28;45227;-60
2022/09/07 07:36:11;;;;;;;;;3.25;3.25;;;;;21.26;48.58;100923.75;4942013;28;45471;-60
2022/09/07 07:38:38;;;;;;;;;5.00;3.25;;;;;21.34;48.76;100914.47;4941101;28;45468;-60
2022/09/07 07:41:04;;;;;;;;;4.50;2.25;;;;;21.39;48.57;100905.22;4942088;28;45249;-59
2022/09/07 07:43:30;;;;;;;;;7.50;3.50;;;;;21.46;48.48;100903.06;4941404;28;45394;-60
2022/09/07 07:45:57;;;;;;;;;5.00;4.25;;;;;21.49;48.43;100907.38;4924555;28;45459;-60
2022/09/07 07:48:22;;;;;;;;;5.50;2.75;;;;;21.53;48.71;100922.28;4937294;28;46191;-60
2022/09/07 07:51:05;;;;;;;;;5.50;5.00;;;;;21.56;48.26;100912.31;4938748;28;45330;-60
2022/09/07 07:53:33;;;;;;;;;3.50;0.75;;;;;21.58;48.53;100915.78;4942216;28;45193;-59
2022/09/07 07:56:00;;;;;;;;;7.00;4.00;;;;;21.61;48.81;100912.06;4928991;28;45420;-60
2022/09/07 07:58:27;;;;;;;;;7.75;4.25;;;;;21.66;48.56;100901.06;4941609;28;46222;-60
2022/09/07 08:00:53;;;;;;;;;3.75;3.75;;;;;21.71;48.69;100897.19;4938494;28;45289;-59
2022/09/07 08:03:19;;;;;;;;;2.75;2.75;;;;;21.73;48.55;100900.63;4942013;28;45303;-60
2022/09/07 08:05:45;;;;;;;;;5.75;4.00;;;;;21.77;48.85;100900.47;4941721;28;45273;-57
2022/09/07 08:08:10;;;;;;;;;7.75;5.00;;;;;21.75;48.48;100898.72;4941825;28;45651;-60
2022/09/07 08:10:36;;;;;;;;;3.00;3.00;;;;;21.82;48.42;100883.16;4924488;28;45422;-60
2022/09/07 08:13:02;;;;;;;;;5.00;3.75;;;;;21.86;48.64;100886.53;4941753;28;45268;-60
2022/09/07 08:15:27;;;;;;;;;5.25;3.50;;;;;21.90;48.42;100894.28;4941484;28;45680;-59
2022/09/07 08:17:52;;;;;;;;;4.00;3.00;;;;;21.94;48.66;100894.97;4941726;28;45438;-60
2022/09/07 08:20:18;;;;;;;;;4.75;3.75;;;;;21.97;48.62;100892.09;4941607;28;45326;-60
2022/09/07 08:22:43;;;;;;;;;4.50;3.75;;;;;21.95;48.79;100896.69;4941126;28;45360;-60
2022/09/07 08:25:09;;;;;;;;;3.00;3.00;;;;;22.03;48.45;100890.88;4941021;28;56260;-59
2022/09/07 08:27:34;;;;;;;;;6.00;4.00;;;;;22.04;48.49;100890.78;4941261;28;46086;-59
2022/09/07 08:30:00;;;;;;;;;6.25;4.50;;;;;22.05;48.79;100887.16;4941390;28;45323;-59
2022/09/07 08:32:27;;;;;;;;;6.00;3.75;;;;;22.10;49.10;100886.91;4941762;28;45311;-59
2022/09/07 08:34:53;;;;;;;;;5.75;4.00;;;;;22.16;48.14;100885.66;4941350;28;45317;-59
2022/09/07 08:37:19;;;;;;;;;4.00;2.50;;;;;22.17;48.38;100898.91;4941382;28;45326;-59
2022/09/07 08:39:44;;;;;;;;;6.25;5.25;;;;;22.22;48.38;100904.84;4941401;28;45392;-59
2022/09/07 08:42:12;;;;;;;;;5.00;4.00;;;;;22.21;48.54;100905.84;4941242;28;45284;-59
2022/09/07 08:44:47;;;;;;;;;2.75;2.75;;;;;22.31;48.86;100900.75;4941432;28;45353;-59
2022/09/07 08:47:15;;;;;;;;;6.50;4.00;;;;;;;;4924393;28;46168;-59
2022/09/07 08:49:44;;;;;;;;;3.75;3.75;;;;;22.36;48.72;100898.69;4920921;28;45357;-60
2022/09/07 08:52:23;;;;;;;;;4.25;4.25;;;;;22.37;48.82;100908.44;4937064;28;45319;-59
2022/09/07 08:55:02;;;;;;;;;6.00;3.25;;;;;22.45;48.68;100915.16;4933380;28;45391;-59
2022/09/07 08:57:31;;;;;;;;;5.75;5.25;;;;;22.53;48.53;100915.56;4937400;28;45336;-59
2022/09/07 09:00:12;;;;;;;;;6.75;5.75;;;;;22.56;48.44;100908.19;4940727;28;45463;-58
2022/09/07 09:02:38;;;;;;;;;5.00;4.00;;;;;22.62;48.71;100908.78;4940266;28;45241;-59
2022/09/07 09:05:04;;;;;;;;;5.50;3.75;;;;;22.67;48.94;100896.81;4941110;28;45256;-59
2022/09/07 09:07:41;;;;;;;;;4.00;2.25;;;;;22.71;48.60;100890.28;4940883;28;47061;-59
2022/09/07 09:10:35;;;;;;;;;3.00;3.00;;;;;22.75;48.85;100882.06;4940952;28;45276;-59
2022/09/07 09:13:35;;;;;;;;;5.00;4.00;;;;;22.83;48.70;100885.09;4940973;28;45301;-60
2022/09/07 09:16:15;;;;;;;;;5.00;2.00;;;;;22.88;48.95;100873.16;4929461;28;45368;-59
2022/09/07 09:18:59;;;;;;;;;6.50;1.75;;;;;22.92;48.39;100868.47;4940775;28;45406;-60
2022/09/07 09:21:25;;;;;;;;;5.75;4.00;;;;;22.99;48.53;100875.16;4940637;28;45257;-59
2022/09/07 09:23:59;;;;;;;;;5.50;1.25;;;;;22.97;48.47;100879.75;4939733;28;45212;-63
2022/09/07 09:26:26;;;;;;;;;5.25;5.25;;;;;22.99;48.81;100861.75;4940853;28;45243;-64
2022/09/07 09:28:52;;;;;;;;;7.50;3.00;;;;;23.04;48.69;100866.78;4940633;28;46425;-63
2022/09/07 09:31:18;;;;;;;;;5.00;4.00;;;;;23.06;49.00;100864.88;4940823;28;45448;-60
2022/09/07 09:33:43;;;;;;;;;5.00;3.00;;;;;23.08;48.87;100868.34;4924549;28;45406;-60
2022/09/07 09:36:30;;;;;;;;;6.25;3.00;;;;;23.15;48.62;100875.03;4944012;28;45332;-55
2022/09/07 09:38:55;;;;;;;;;4.50;3.00;;;;;23.14;48.46;100872.44;4944172;28;47181;-60
2022/09/07 09:41:20;;;;;;;;;4.75;2.00;;;;;23.14;48.64;100875.09;4943821;28;45316;-63
2022/09/07 09:43:54;;;;;;;;;4.25;3.00;;;;;23.08;48.61;100865.66;4943905;28;45528;-63
2022/09/07 09:46:27;;;;;;;;;4.25;4.00;;;;;23.16;48.53;100874.06;4926695;28;45569;-63
2022/09/07 09:48:59;;;;;;;;;6.50;4.75;;;;;23.21;48.35;100869.28;4943817;28;46585;-64
2022/09/07 09:51:31;;;;;;;;;3.00;3.00;;;;;23.26;48.45;100866.28;4930586;28;45255;-63
2022/09/07 09:54:21;;;;;;;;;4.00;3.00;;;;;23.30;48.50;100872.31;4942957;28;45355;-60
2022/09/07 09:56:47;;;;;;;;;8.25;3.25;;;;;23.37;48.55;100858.41;4927700;28;45486;-60
2022/09/07 09:59:27;;;;;;;;;6.00;3.50;;;;;23.42;48.31;100870.63;4943323;28;45496;-60
2022/09/07 10:01:52;;;;;;;;;5.25;4.50;;;;;23.43;48.17;100862.47;4939967;28;45468;-60
2022/09/07 10:04:29;;;;;;;;;3.50;3.25;;;;;23.50;48.17;100858.44;4922715;28;45316;-61
2022/09/07 10:07:27;;;;;;;;;3.75;1.75;;;;;23.53;48.18;100857.38;4937536;28;45608;-61
2022/09/07 10:09:55;;;;;;;;;4.75;3.00;;;;;23.51;48.23;100856.63;4943221;28;45380;-58
2022/09/07 10:12:34;;;;;;;;;3.75;3.75;;;;;23.57;47.88;100848.19;4942795;28;45252;-58
2022/09/07 10:15:01;;;;;;;;;3.25;3.25;;;;;23.64;47.68;100851.31;4939566;28;45419;-58
2022/09/07 10:17:29;;;;;;;;;8.50;7.25;;;;;23.66;47.22;100850.22;4943426;28;45182;-59
2022/09/07 10:20:19;;;;;;;;;7.25;4.00;;;;;23.67;47.78;100843.91;4942923;28;46341;-58
2022/09/07 10:22:50;;;;;;;;;10.50;5.50;;;;;23.69;47.69;100852.69;4938756;28;45380;-60
2022/09/07 10:25:38;;;;;;;;;6.50;5.25;;;;;23.70;47.54;100838.31;4943176;28;45364;-58
2022/09/07 10:28:11;;;;;;;;;9.50;4.25;;;;;23.76;47.37;100841.53;4942700;28;45240;-59
2022/09/07 10:31:14;;;;;;;;;3.25;3.00;;;;;23.80;47.29;100835.88;4942893;28;45292;-59
2022/09/07 10:34:04;;;;;;;;;5.50;5.00;;;;;23.83;47.23;100837.47;4938206;28;45522;-59
2022/09/07 10:36:51;;;;;;;;;6.00;3.00;;;;;23.84;47.46;100841.88;4942851;28;45445;-59
2022/09/07 10:39:24;;;;;;;;;3.00;3.00;;;;;23.95;47.21;100836.69;4937482;28;45435;-58
2022/09/07 10:42:08;;;;;;;;;7.25;4.00;;;;;24.03;46.92;100836.13;4942378;28;46268;-59
2022/09/07 10:44:45;;;;;;;;;7.00;3.00;;;;;24.04;46.72;100834.31;4942292;28;45281;-59
2022/09/07 10:47:38;;;;;;;;;4.25;4.25;;;;;24.07;46.84;100834.94;4942803;28;45324;-59
2022/09/07 10:50:08;;;;;;;;;7.00;2.50;;;;;24.09;46.83;100841.09;4936840;28;45200;-52
2022/09/07 10:53:10;;;;;;;;;2.50;2.00;;;;;24.12;46.71;100831.97;4942656;28;46309;-59
2022/09/07 10:55:40;;;;;;;;;5.00;4.00;;;;;24.16;46.66;100828.09;4936961;28;45399;-67
2022/09/07 10:58:16;;;;;;;;;4.00;1.75;;;;;24.23;46.43;100834.75;4938979;28;45416;-59
2022/09/07 11:01:00;;;;;;;;;3.75;2.00;;;;;24.29;46.44;100836.16;4948191;28;45444;-60
2022/09/07 11:03:44;;;;;;;;;5.75;3.75;;;;;24.26;46.64;100822.94;4920144;28;46194;-58
2022/09/07 11:06:17;;;;;;;;;5.25;3.00;;;;;24.30;46.19;100830.66;4946143;28;45313;-56
2022/09/07 11:40:09;;;;;;;;;3.00;1.75;;;;;24.39;45.03;100812.16;5861249;23;46655;-67
2022/09/07 11:42:47;;;;;;;;;5.00;2.50;;;;;24.41;44.43;100808.41;4950632;28;45302;-68
2022/09/07 11:45:27;;;;;;;;;2.50;2.25;;;;;24.39;44.50;100796.94;4936714;28;45939;-67
2022/09/07 11:48:00;;;;;;;;;5.25;4.00;;;;;24.47;44.39;100807.13;4957377;28;45541;-67
2022/09/07 11:50:30;;;;;;;;;4.00;3.25;;;;;24.42;43.87;100796.69;4956259;28;45336;-68
2022/09/07 11:53:08;;;;;;;;;3.25;2.75;;;;;24.49;44.38;100789.06;4957704;28;45433;-66
2022/09/07 11:55:38;;;;;;;;;3.50;3.00;;;;;24.48;44.02;100790.88;4957521;28;45453;-66
2022/09/07 11:58:22;;;;;;;;;1.25;1.25;;;;;24.50;44.24;100785.41;4955149;28;48118;-66
2022/09/07 12:01:00;;;;;;;;;3.00;3.00;;;;;24.48;43.74;100790.88;4956553;28;45880;-66
2022/09/07 12:03:43;;;;;;;;;3.00;2.00;;;;;24.49;43.77;100797.13;4956993;28;45453;-65
2022/09/07 12:06:36;;;;;;;;;4.50;1.50;;;;;24.45;44.02;100790.25;4954612;28;45571;-71
2022/09/07 12:09:24;;;;;;;;;4.00;2.75;;;;;24.45;44.09;100790.25;4957581;28;45941;-64
2022/09/07 12:12:18;;;;;;;;;3.50;2.50;;;;;24.45;44.19;100787.56;4955513;28;45402;-71
2022/09/07 12:15:09;;;;;;;;;4.00;2.75;;;;;24.48;44.35;100788.19;4947101;28;46042;-70
2022/09/07 12:17:49;;;;;;;;;2.75;2.75;;;;;24.46;44.23;100789.28;4951528;28;45564;-72